createdAt,value
2017-12-11T00:00:32.288Z,3.80
2017-12-11T00:02:58.380Z,3.80
2017-12-11T00:05:24.547Z,3.80
2017-12-11T00:07:50.704Z,3.70
2017-12-11T00:10:16.804Z,3.60
2017-12-11T00:12:42.941Z,3.60
2017-12-11T00:15:09.267Z,3.70
2017-12-11T00:17:35.375Z,3.80
2017-12-11T00:20:01.515Z,3.80
2017-12-11T00:22:40.581Z,3.70
2017-12-11T00:25:06.676Z,3.70
2017-12-11T00:27:33.084Z,3.60
2017-12-11T00:29:59.625Z,3.60
2017-12-11T00:32:26.064Z,3.80
2017-12-11T00:34:52.385Z,3.70
2017-12-11T00:37:18.713Z,3.60
2017-12-11T00:39:45.045Z,3.60
2017-12-11T00:42:11.495Z,3.60
2017-12-11T00:44:38.571Z,3.50
2017-12-11T00:47:04.903Z,3.30
2017-12-11T00:49:33.450Z,3.60
2017-12-11T00:51:59.789Z,3.60
2017-12-11T00:54:26.250Z,3.60
2017-12-11T00:56:52.689Z,3.50
2017-12-11T00:59:19.732Z,3.50
2017-12-11T01:01:46.190Z,3.40
2017-12-11T01:04:13.291Z,3.60
2017-12-11T01:06:39.616Z,3.60
2017-12-11T01:09:05.962Z,3.60
2017-12-11T01:11:32.706Z,3.70
2017-12-11T01:13:58.853Z,3.50
2017-12-11T01:16:25.212Z,3.30
2017-12-11T01:18:51.570Z,3.60
2017-12-11T01:21:21.817Z,3.60
2017-12-11T01:23:48.401Z,3.60
2017-12-11T01:26:14.703Z,3.50
2017-12-11T01:28:41.044Z,3.60
2017-12-11T01:31:07.389Z,3.50
2017-12-11T01:33:34.477Z,3.60
2017-12-11T01:36:00.804Z,3.60
2017-12-11T01:38:27.146Z,3.50
2017-12-11T01:40:57.264Z,3.50
2017-12-11T01:43:24.646Z,3.40
2017-12-11T01:45:50.901Z,3.50
2017-12-11T01:48:17.781Z,3.60
2017-12-11T01:50:43.901Z,3.60
2017-12-11T01:53:10.527Z,3.40
2017-12-11T01:55:36.649Z,3.40
2017-12-11T01:58:03.152Z,3.40
2017-12-11T02:00:30.795Z,3.40
2017-12-11T02:02:56.908Z,3.30
2017-12-11T02:05:23.042Z,3.70
2017-12-11T02:07:49.164Z,3.40
2017-12-11T02:10:16.097Z,3.30
2017-12-11T02:12:42.233Z,3.30
2017-12-11T02:15:08.362Z,3.40
2017-12-11T02:17:34.617Z,3.30
2017-12-11T02:20:00.774Z,3.10
2017-12-11T02:22:26.949Z,3.60
2017-12-11T02:24:53.324Z,3.30
2017-12-11T02:27:19.450Z,3.20
2017-12-11T02:29:45.604Z,3.30
2017-12-11T02:32:11.732Z,3.40
2017-12-11T02:34:37.862Z,3.30
2017-12-11T02:37:04.718Z,3.30
2017-12-11T02:39:31.588Z,3.30
2017-12-11T02:41:57.716Z,3.20
2017-12-11T02:44:23.854Z,3.70
2017-12-11T02:46:50.005Z,3.40
2017-12-11T02:49:16.249Z,3.40
2017-12-11T02:51:42.799Z,3.40
2017-12-11T02:54:08.942Z,3.40
2017-12-11T02:56:38.043Z,3.30
2017-12-11T02:59:04.270Z,3.20
2017-12-11T03:01:30.433Z,3.20
2017-12-11T03:03:56.548Z,3.10
2017-12-11T03:06:22.893Z,3.10
2017-12-11T03:08:49.265Z,3.10
2017-12-11T03:11:16.154Z,2.80
2017-12-11T03:13:42.288Z,2.90
2017-12-11T03:16:10.358Z,2.80
2017-12-11T03:18:36.692Z,2.80
2017-12-11T03:21:04.338Z,2.90
2017-12-11T03:23:30.462Z,2.90
2017-12-11T03:25:56.561Z,2.90
2017-12-11T03:28:22.729Z,2.80
2017-12-11T03:30:49.036Z,2.80
2017-12-11T03:33:15.318Z,2.90
2017-12-11T03:35:41.607Z,3.00
2017-12-11T03:38:07.916Z,3.10
2017-12-11T03:40:34.941Z,2.90
2017-12-11T03:43:01.520Z,2.90
2017-12-11T03:45:28.359Z,2.80
2017-12-11T03:47:55.434Z,2.70
2017-12-11T03:50:22.372Z,2.80
2017-12-11T03:52:48.488Z,2.80
2017-12-11T03:55:14.644Z,2.80
2017-12-11T03:57:40.757Z,2.80
2017-12-11T04:00:07.241Z,2.80
2017-12-11T04:02:33.377Z,2.50
2017-12-11T04:04:59.667Z,2.70
2017-12-11T04:07:26.867Z,2.70
2017-12-11T04:09:52.960Z,2.90
2017-12-11T04:12:19.126Z,2.70
2017-12-11T04:14:45.466Z,2.70
2017-12-11T04:17:12.052Z,2.70
2017-12-11T04:19:38.904Z,2.70
2017-12-11T04:22:07.969Z,2.60
2017-12-11T04:24:34.092Z,2.70
2017-12-11T04:27:00.216Z,2.80
2017-12-11T04:29:26.344Z,2.90
2017-12-11T04:31:53.340Z,2.60
2017-12-11T04:34:20.184Z,2.60
2017-12-11T04:36:46.301Z,2.60
2017-12-11T04:39:13.553Z,2.60
2017-12-11T04:41:39.685Z,2.80
2017-12-11T04:44:05.792Z,2.60
2017-12-11T04:46:31.985Z,2.60
2017-12-11T04:48:58.106Z,2.30
2017-12-11T04:51:24.214Z,2.50
2017-12-11T04:53:50.344Z,2.50
2017-12-11T04:56:16.456Z,2.50
2017-12-11T04:58:42.565Z,2.40
2017-12-11T05:01:08.956Z,2.40
2017-12-11T05:03:38.707Z,2.40
2017-12-11T05:06:04.845Z,2.40
2017-12-11T05:08:31.191Z,2.40
2017-12-11T05:10:57.380Z,2.40
2017-12-11T05:13:23.484Z,2.40
2017-12-11T05:15:50.364Z,2.40
2017-12-11T05:18:16.557Z,2.40
2017-12-11T05:20:42.704Z,2.40
2017-12-11T05:23:08.839Z,2.30
2017-12-11T05:25:34.957Z,2.40
2017-12-11T05:28:01.267Z,2.30
2017-12-11T05:30:27.384Z,2.40
2017-12-11T05:32:53.502Z,2.30
2017-12-11T05:35:19.854Z,2.20
2017-12-11T05:37:46.069Z,2.20
2017-12-11T05:40:12.954Z,2.10
2017-12-11T05:42:39.106Z,2.10
2017-12-11T05:45:05.953Z,2.00
2017-12-11T05:47:32.820Z,1.90
2017-12-11T05:49:59.676Z,1.90
2017-12-11T05:52:26.522Z,1.90
2017-12-11T05:54:52.656Z,1.90
2017-12-11T05:57:19.176Z,1.90
2017-12-11T05:59:45.279Z,1.90
2017-12-11T06:02:12.116Z,2.00
2017-12-11T06:04:38.789Z,2.00
2017-12-11T06:07:04.925Z,1.90
2017-12-11T06:09:34.300Z,1.90
2017-12-11T06:12:00.393Z,1.80
2017-12-11T06:14:26.522Z,1.80
2017-12-11T06:16:52.660Z,1.80
2017-12-11T06:19:18.795Z,1.70
2017-12-11T06:21:44.912Z,1.70
2017-12-11T06:24:11.064Z,1.70
2017-12-11T06:26:37.960Z,1.70
2017-12-11T06:29:04.247Z,1.70
2017-12-11T06:31:30.444Z,1.80
2017-12-11T06:33:56.561Z,1.90
2017-12-11T06:36:23.210Z,1.80
2017-12-11T06:38:49.352Z,1.90
2017-12-11T06:41:15.461Z,1.90
2017-12-11T06:43:41.590Z,1.80
2017-12-11T06:46:07.710Z,1.80
2017-12-11T06:48:33.842Z,1.80
2017-12-11T06:50:59.978Z,1.80
2017-12-11T06:53:29.809Z,1.80
2017-12-11T06:55:55.899Z,1.70
2017-12-11T06:58:22.058Z,1.70
2017-12-11T07:00:48.272Z,1.80
2017-12-11T07:03:14.381Z,1.80
2017-12-11T07:05:40.930Z,1.70
2017-12-11T07:08:07.131Z,1.80
2017-12-11T07:10:33.305Z,1.70
2017-12-11T07:12:59.422Z,1.80
2017-12-11T07:15:26.319Z,1.80
2017-12-11T07:17:52.421Z,1.70
2017-12-11T07:20:18.520Z,1.80
2017-12-11T07:22:44.657Z,1.70
2017-12-11T07:25:10.771Z,1.70
2017-12-11T07:27:38.702Z,1.70
2017-12-11T07:30:05.125Z,1.70
2017-12-11T07:35:28.509Z,1.80
2017-12-11T07:37:55.343Z,1.70
2017-12-11T07:40:21.456Z,1.70
2017-12-11T07:42:47.662Z,1.70
2017-12-11T07:45:14.581Z,1.60
2017-12-11T07:47:40.696Z,1.60
2017-12-11T07:50:07.053Z,1.60
2017-12-11T07:52:33.156Z,1.70
2017-12-11T07:54:59.256Z,1.60
2017-12-11T07:57:25.385Z,1.60
2017-12-11T07:59:51.542Z,1.50
2017-12-11T08:02:17.710Z,1.60
2017-12-11T08:04:43.808Z,1.70
2017-12-11T08:07:09.920Z,1.80
2017-12-11T08:09:36.759Z,1.70
2017-12-11T08:12:02.866Z,1.70
2017-12-11T08:14:29.077Z,1.80
2017-12-11T08:16:55.393Z,1.90
2017-12-11T08:19:21.958Z,1.70
2017-12-11T08:21:48.341Z,1.70
2017-12-11T08:24:14.668Z,1.70
2017-12-11T08:26:41.710Z,1.80
2017-12-11T08:29:08.606Z,1.80
2017-12-11T08:31:34.720Z,1.80
2017-12-11T08:34:01.581Z,1.90
2017-12-11T08:36:27.704Z,1.90
2017-12-11T08:38:54.012Z,2.00
2017-12-11T08:41:20.119Z,1.90
2017-12-11T08:43:46.212Z,1.80
2017-12-11T08:46:12.318Z,1.80
2017-12-11T08:48:38.426Z,1.90
2017-12-11T08:51:05.300Z,1.90
2017-12-11T08:53:31.396Z,1.60
2017-12-11T08:55:57.568Z,1.90
2017-12-11T08:58:24.408Z,1.80
2017-12-11T09:00:50.528Z,1.80
2017-12-11T09:03:16.702Z,1.80
2017-12-11T09:05:42.797Z,1.90
2017-12-11T09:08:08.990Z,1.70
2017-12-11T09:10:35.352Z,1.90
2017-12-11T09:13:02.106Z,1.70
2017-12-11T09:15:29.259Z,1.70
2017-12-11T09:17:55.438Z,1.70
2017-12-11T09:20:25.116Z,1.70
2017-12-11T09:22:51.488Z,1.70
2017-12-11T09:25:18.566Z,1.80
2017-12-11T09:27:44.871Z,1.70
2017-12-11T09:30:12.845Z,1.60
2017-12-11T09:32:39.167Z,1.50
2017-12-11T09:35:05.513Z,1.60
2017-12-11T09:37:32.119Z,1.50
2017-12-11T09:39:58.512Z,1.30
2017-12-11T09:42:24.860Z,1.50
2017-12-11T09:44:56.147Z,1.50
2017-12-11T09:47:22.452Z,1.60
2017-12-11T09:49:48.735Z,1.60
2017-12-11T09:52:15.752Z,1.50
2017-12-11T09:54:42.061Z,1.50
2017-12-11T09:57:08.361Z,1.80
2017-12-11T09:59:34.709Z,1.60
2017-12-11T10:02:04.094Z,1.50
2017-12-11T10:04:30.505Z,1.40
2017-12-11T10:06:57.579Z,1.30
2017-12-11T10:09:23.917Z,1.30
2017-12-11T10:11:50.233Z,1.30
2017-12-11T10:14:17.300Z,1.30
2017-12-11T10:16:43.703Z,1.30
2017-12-11T10:19:10.004Z,1.30
2017-12-11T10:21:38.733Z,1.30
2017-12-11T10:24:05.210Z,1.30
2017-12-11T10:26:32.287Z,1.20
2017-12-11T10:28:58.585Z,1.20
2017-12-11T10:31:24.934Z,1.20
2017-12-11T10:33:51.961Z,1.10
2017-12-11T10:36:18.297Z,1.10
2017-12-11T10:38:45.316Z,1.20
2017-12-11T10:41:14.952Z,1.20
2017-12-11T10:43:41.237Z,1.10
2017-12-11T10:46:07.524Z,1.20
2017-12-11T10:48:34.576Z,1.20
2017-12-11T10:51:00.888Z,1.20
2017-12-11T10:53:27.238Z,1.10
2017-12-11T10:55:53.745Z,1.20
2017-12-11T10:58:23.500Z,1.20
2017-12-11T11:00:49.816Z,1.20
2017-12-11T11:03:16.124Z,1.20
2017-12-11T11:05:43.165Z,1.20
2017-12-11T11:08:09.485Z,1.20
2017-12-11T11:10:35.811Z,1.20
2017-12-11T11:13:02.522Z,1.20
2017-12-11T11:15:28.868Z,1.00
2017-12-11T11:17:58.620Z,1.10
2017-12-11T11:20:24.905Z,1.10
2017-12-11T11:22:57.992Z,1.10
2017-12-11T11:25:24.839Z,1.10
2017-12-11T11:27:57.078Z,1.10
2017-12-11T11:30:26.499Z,1.00
2017-12-11T11:32:52.648Z,1.20
2017-12-11T11:35:18.740Z,1.10
2017-12-11T11:37:45.624Z,1.20
2017-12-11T11:40:11.930Z,1.20
2017-12-11T11:42:38.025Z,1.70
2017-12-11T11:45:04.888Z,1.40
2017-12-11T11:47:31.025Z,1.40
2017-12-11T11:50:00.917Z,1.40
2017-12-11T11:52:27.764Z,1.40
2017-12-11T11:54:53.950Z,1.30
2017-12-11T11:57:20.789Z,1.40
2017-12-11T11:59:46.885Z,1.40
2017-12-11T12:02:13.720Z,1.50
2017-12-11T12:04:39.840Z,1.50
2017-12-11T12:07:05.957Z,1.40
2017-12-11T12:09:38.249Z,1.70
2017-12-11T12:12:04.466Z,1.50
2017-12-11T12:14:30.623Z,1.20
2017-12-11T12:16:56.740Z,1.40
2017-12-11T12:19:23.222Z,1.50
2017-12-11T12:21:49.328Z,1.50
2017-12-11T12:24:15.456Z,1.50
2017-12-11T12:26:41.808Z,1.50
2017-12-11T12:29:13.924Z,1.10
2017-12-11T12:31:40.074Z,1.50
2017-12-11T12:34:06.229Z,1.60
2017-12-11T12:36:32.385Z,1.60
2017-12-11T12:38:58.500Z,1.60
2017-12-11T12:41:24.809Z,1.50
2017-12-11T12:43:50.962Z,1.50
2017-12-11T12:46:17.486Z,1.50
2017-12-11T12:48:47.037Z,1.60
2017-12-11T12:51:13.257Z,1.60
2017-12-11T12:53:39.365Z,1.60
2017-12-11T12:56:05.529Z,1.60
2017-12-11T12:58:31.692Z,1.50
2017-12-11T13:00:58.125Z,1.50
2017-12-11T13:03:24.964Z,1.60
2017-12-11T13:05:57.017Z,1.60
2017-12-11T13:08:23.953Z,1.60
2017-12-11T13:10:50.026Z,1.60
2017-12-11T13:13:17.008Z,1.60
2017-12-11T13:15:43.107Z,1.60
2017-12-11T13:18:09.608Z,1.50
2017-12-11T13:20:35.740Z,1.60
2017-12-11T13:23:07.950Z,1.50
2017-12-11T13:25:34.305Z,1.50
2017-12-11T13:28:00.697Z,1.50
2017-12-11T13:30:26.796Z,1.50
2017-12-11T13:32:52.917Z,1.40
2017-12-11T13:35:19.019Z,1.40
2017-12-11T13:37:45.631Z,1.40
2017-12-11T13:40:18.231Z,1.40
2017-12-11T13:42:44.465Z,1.50
2017-12-11T13:45:10.569Z,1.40
2017-12-11T13:47:36.683Z,1.40
2017-12-11T13:50:02.783Z,1.50
2017-12-11T13:52:29.617Z,1.70
2017-12-11T13:54:55.900Z,1.70
2017-12-11T13:57:22.748Z,1.90
2017-12-11T13:59:52.809Z,1.80
2017-12-11T14:02:18.950Z,1.90
2017-12-11T14:04:45.083Z,2.00
2017-12-11T14:07:11.176Z,2.00
2017-12-11T14:09:37.280Z,1.90
2017-12-11T14:12:04.196Z,1.90
2017-12-11T14:14:30.297Z,1.90
2017-12-11T14:16:56.661Z,1.80
2017-12-11T14:19:27.520Z,2.10
2017-12-11T14:21:53.654Z,1.80
2017-12-11T14:24:20.509Z,1.80
2017-12-11T14:26:46.697Z,1.80
2017-12-11T14:29:12.803Z,1.80
2017-12-11T14:31:38.912Z,1.90
2017-12-11T14:34:05.864Z,2.00
2017-12-11T14:36:32.130Z,2.00
2017-12-11T14:39:04.940Z,2.00
2017-12-11T14:41:32.214Z,2.00
2017-12-11T14:43:58.409Z,2.00
2017-12-11T14:46:24.504Z,2.00
2017-12-11T14:48:50.613Z,2.20
2017-12-11T14:51:16.789Z,2.20
2017-12-11T14:53:49.808Z,2.10
2017-12-11T14:56:16.136Z,2.10
2017-12-11T14:58:42.372Z,2.20
2017-12-11T15:01:09.400Z,2.30
2017-12-11T15:03:35.520Z,2.20
2017-12-11T15:06:02.583Z,2.30
2017-12-11T15:08:32.661Z,2.30
2017-12-11T15:10:58.818Z,2.30
2017-12-11T15:13:25.276Z,2.10
2017-12-11T15:15:51.456Z,2.20
2017-12-11T15:18:17.569Z,2.10
2017-12-11T15:20:43.944Z,2.10
2017-12-11T15:23:10.065Z,2.30
2017-12-11T15:25:42.658Z,2.30
2017-12-11T15:28:08.782Z,2.30
2017-12-11T15:30:34.972Z,2.30
2017-12-11T15:33:01.837Z,2.20
2017-12-11T15:35:28.086Z,2.30
2017-12-11T15:37:54.413Z,2.20
2017-12-11T15:40:21.261Z,2.30
2017-12-11T15:42:47.583Z,2.30
2017-12-11T15:45:13.900Z,2.20
2017-12-11T15:47:40.101Z,2.20
2017-12-11T15:50:06.238Z,2.00
2017-12-11T15:52:33.104Z,2.20
2017-12-11T15:54:59.228Z,2.30
2017-12-11T15:57:25.345Z,2.30
2017-12-11T15:59:52.879Z,2.20
2017-12-11T16:02:19.037Z,2.20
2017-12-11T16:04:45.204Z,2.30
2017-12-11T16:07:11.327Z,2.30
2017-12-11T16:09:37.441Z,2.30
2017-12-11T16:12:03.565Z,2.30
2017-12-11T16:14:30.655Z,2.20
2017-12-11T16:16:56.813Z,2.20
2017-12-11T16:19:23.644Z,2.30
2017-12-11T16:21:49.956Z,2.20
2017-12-11T16:24:16.204Z,2.60
2017-12-11T16:26:42.448Z,2.20
2017-12-11T16:29:08.586Z,2.00
2017-12-11T16:31:34.769Z,2.30
2017-12-11T16:34:01.046Z,2.30
2017-12-11T16:36:27.220Z,2.30
2017-12-11T16:38:54.623Z,2.30
2017-12-11T16:41:21.517Z,2.40
2017-12-11T16:43:48.539Z,2.40
2017-12-11T16:46:14.876Z,2.40
2017-12-11T16:48:41.072Z,2.40
2017-12-11T16:51:07.333Z,2.40
2017-12-11T16:53:35.073Z,2.40
2017-12-11T16:56:01.497Z,2.40
2017-12-11T16:58:28.174Z,2.40
2017-12-11T17:00:54.580Z,2.40
2017-12-11T17:03:20.908Z,2.50
2017-12-11T17:05:47.246Z,2.60
2017-12-11T17:08:13.557Z,2.60
2017-12-11T17:10:41.552Z,2.70
2017-12-11T17:13:07.892Z,2.70
2017-12-11T17:15:34.981Z,2.70
2017-12-11T17:18:01.998Z,2.70
2017-12-11T17:20:28.356Z,2.70
2017-12-11T17:22:55.407Z,2.80
2017-12-11T17:25:21.689Z,2.70
2017-12-11T17:27:48.882Z,2.70
2017-12-11T17:30:15.055Z,2.80
2017-12-11T17:32:41.349Z,2.80
2017-12-11T17:35:07.555Z,2.90
2017-12-11T17:37:33.928Z,3.10
2017-12-11T17:40:00.261Z,3.00
2017-12-11T17:42:30.033Z,3.10
2017-12-11T17:44:57.097Z,3.20
2017-12-11T17:47:23.253Z,3.20
2017-12-11T17:49:49.370Z,3.30
2017-12-11T17:52:15.468Z,3.40
2017-12-11T17:54:41.825Z,3.60
2017-12-11T17:57:13.753Z,3.30
2017-12-11T17:59:40.060Z,3.80
2017-12-11T18:02:06.391Z,3.90
2017-12-11T18:04:32.720Z,3.90
2017-12-11T18:06:59.026Z,4.00
2017-12-11T18:09:26.083Z,4.30
2017-12-11T18:14:24.456Z,4.50
2017-12-11T18:16:51.517Z,4.50
2017-12-11T18:19:17.640Z,4.50
2017-12-11T18:21:43.805Z,4.90
2017-12-11T18:24:10.857Z,4.60
2017-12-11T18:26:43.197Z,4.70
2017-12-11T18:29:09.685Z,4.60
2017-12-11T18:31:36.150Z,4.60
2017-12-11T18:34:02.541Z,4.70
2017-12-11T18:36:29.641Z,4.90
2017-12-11T18:38:55.982Z,4.90
2017-12-11T18:41:22.373Z,5.00
2017-12-11T18:43:51.747Z,5.10
2017-12-11T18:46:18.130Z,5.10
2017-12-11T18:48:44.494Z,5.20
2017-12-11T18:51:10.830Z,5.40
2017-12-11T18:53:37.127Z,5.40
2017-12-11T18:56:03.437Z,5.40
2017-12-11T18:58:29.805Z,5.60
2017-12-11T19:00:56.129Z,5.60
2017-12-11T19:03:29.183Z,5.50
2017-12-11T19:05:55.376Z,5.50
2017-12-11T19:08:22.024Z,5.60
2017-12-11T19:10:48.121Z,5.60
2017-12-11T19:13:14.968Z,5.70
2017-12-11T19:15:41.277Z,5.70
2017-12-11T19:18:07.619Z,5.70
2017-12-11T19:20:33.992Z,5.70
2017-12-11T19:23:00.356Z,5.80
2017-12-11T19:25:26.672Z,5.90
2017-12-11T19:27:54.329Z,5.60
2017-12-11T19:30:20.658Z,5.90
2017-12-11T19:32:46.994Z,5.90
2017-12-11T19:35:13.321Z,6.00
2017-12-11T19:37:42.248Z,6.10
2017-12-11T19:40:08.673Z,6.10
2017-12-11T19:42:35.777Z,6.20
2017-12-11T19:45:02.086Z,6.20
2017-12-11T19:47:29.165Z,6.20
2017-12-11T19:49:56.016Z,6.40
2017-12-11T19:52:22.177Z,6.30
2017-12-11T19:54:48.311Z,6.30
2017-12-11T19:57:21.136Z,6.50
2017-12-11T19:59:47.208Z,6.30
2017-12-11T20:02:13.313Z,6.20
2017-12-11T20:04:39.742Z,6.30
2017-12-11T20:07:05.894Z,6.30
2017-12-11T20:09:32.057Z,6.20
2017-12-11T20:11:58.310Z,6.10
2017-12-11T20:14:25.221Z,5.90
2017-12-11T20:16:51.344Z,5.90
2017-12-11T20:19:18.936Z,5.90
2017-12-11T20:21:45.036Z,6.00
2017-12-11T20:24:11.888Z,6.00
2017-12-11T20:26:41.251Z,6.00
2017-12-11T20:29:07.345Z,6.10
2017-12-11T20:31:33.501Z,6.00
2017-12-11T20:33:59.634Z,6.00
2017-12-11T20:36:25.854Z,5.90
2017-12-11T20:38:52.059Z,5.90
2017-12-11T20:41:18.208Z,5.90
2017-12-11T20:43:44.292Z,6.00
2017-12-11T20:46:10.436Z,6.00
2017-12-11T20:48:36.673Z,6.00
2017-12-11T20:51:02.786Z,6.00
2017-12-11T20:53:28.905Z,6.00
2017-12-11T20:55:54.992Z,6.00
2017-12-11T20:58:21.291Z,5.90
2017-12-11T21:00:47.630Z,5.90
2017-12-11T21:03:13.983Z,5.90
2017-12-11T21:05:40.331Z,6.00
2017-12-11T21:08:06.695Z,6.00
2017-12-11T21:10:33.118Z,6.10
2017-12-11T21:12:59.484Z,6.10
2017-12-11T21:15:26.088Z,6.00
2017-12-11T21:17:52.430Z,6.00
2017-12-11T21:20:18.870Z,6.20
2017-12-11T21:22:45.446Z,6.20
2017-12-11T21:25:15.294Z,6.30
2017-12-11T21:27:41.627Z,6.50
2017-12-11T21:30:08.169Z,6.60
2017-12-11T21:32:35.248Z,6.70
2017-12-11T21:35:02.294Z,6.80
2017-12-11T21:37:29.368Z,6.80
2017-12-11T21:39:55.692Z,6.70
2017-12-11T21:42:22.005Z,6.80
2017-12-11T21:44:48.283Z,6.90
2017-12-11T21:47:14.598Z,6.70
2017-12-11T21:49:40.919Z,6.70
2017-12-11T21:52:07.309Z,6.80
2017-12-11T21:54:33.588Z,6.80
2017-12-11T21:56:59.977Z,6.60
2017-12-11T21:59:26.444Z,6.50
2017-12-11T22:04:27.272Z,6.30
2017-12-11T22:06:54.152Z,6.20
2017-12-11T22:09:20.340Z,6.20
2017-12-11T22:11:46.572Z,6.20
2017-12-11T22:14:14.373Z,6.20
2017-12-11T22:16:40.479Z,6.20
2017-12-11T22:19:06.682Z,6.30
2017-12-11T22:21:32.840Z,6.20
2017-12-11T22:23:59.054Z,6.30
2017-12-11T22:26:25.385Z,6.20
2017-12-11T22:28:51.701Z,6.50
2017-12-11T22:31:18.012Z,6.20
2017-12-11T22:33:44.502Z,6.20
2017-12-11T22:36:11.795Z,6.40
2017-12-11T22:38:38.276Z,6.00
2017-12-11T22:41:04.818Z,6.40
2017-12-11T22:43:31.599Z,6.40
2017-12-11T22:45:58.267Z,6.30
2017-12-11T22:48:25.540Z,6.10
2017-12-11T22:50:52.742Z,6.10
2017-12-11T22:53:19.517Z,6.10
2017-12-11T22:55:46.813Z,6.20
2017-12-11T22:58:13.116Z,6.10
2017-12-11T23:00:39.996Z,6.10
2017-12-11T23:03:06.338Z,6.10
2017-12-11T23:05:32.723Z,6.10
2017-12-11T23:08:01.075Z,6.10
2017-12-11T23:10:28.356Z,6.20
2017-12-11T23:12:55.398Z,6.10
2017-12-11T23:15:21.855Z,6.10
2017-12-11T23:17:48.144Z,6.10
2017-12-11T23:20:14.988Z,6.20
2017-12-11T23:22:41.244Z,6.20
2017-12-11T23:25:07.987Z,6.30
2017-12-11T23:27:34.299Z,6.50
2017-12-11T23:30:01.416Z,6.50
2017-12-11T23:32:27.722Z,6.80
2017-12-11T23:34:54.808Z,6.20
2017-12-11T23:37:21.148Z,6.20
2017-12-11T23:39:47.452Z,5.90
2017-12-11T23:42:13.752Z,5.90
2017-12-11T23:44:40.809Z,5.60
2017-12-11T23:47:07.037Z,5.60
2017-12-11T23:49:33.379Z,5.50
2017-12-11T23:52:00.301Z,5.30
2017-12-11T23:54:32.472Z,5.30
2017-12-11T23:56:59.600Z,5.20
2017-12-11T23:59:25.908Z,5.40
